Time;durP1;ratioP1;P1;durP2;ratioP2;P2;SDS_P1;SDS_P2;PMS_P1;PMS_P2;Temp;Humidity;BMP_temperature;BMP_pressure;BME280_temperature;BME280_humidity;BME280_pressure;Samples;Min_cycle;Max_cycle;Signal;HPM_P1;HPM_P2
2023/11/11 00:00:37;;;;;;;4.90;1.90;;;4.70;73.20;;;;;;5096329;28;20560;-72
2023/11/11 00:03:06;;;;;;;2.60;1.20;;;4.70;73.40;;;;;;5096460;28;20177;-72
2023/11/11 00:05:34;;;;;;;2.58;1.60;;;4.60;73.50;;;;;;5095755;28;20189;-72
2023/11/11 00:08:02;;;;;;;3.78;1.63;;;4.60;73.30;;;;;;5096238;28;20224;-73
2023/11/11 00:10:30;;;;;;;3.20;1.27;;;4.60;73.60;;;;;;5095032;28;20190;-72
2023/11/11 00:13:00;;;;;;;3.13;1.50;;;4.60;74.00;;;;;;5095841;28;20189;-72
2023/11/11 00:15:27;;;;;;;3.33;1.42;;;4.60;74.10;;;;;;5096217;28;20201;-73
2023/11/11 00:17:58;;;;;;;2.70;1.27;;;4.60;74.30;;;;;;5095874;28;20259;-73
2023/11/11 00:20:26;;;;;;;3.42;1.52;;;4.60;74.00;;;;;;5095680;28;20242;-73
2023/11/11 00:22:53;;;;;;;4.05;1.70;;;4.60;73.90;;;;;;5095615;28;20276;-73
2023/11/11 00:25:23;;;;;;;2.65;1.33;;;4.60;73.70;;;;;;5095885;28;20330;-73
2023/11/11 00:27:50;;;;;;;2.40;1.48;;;4.60;73.70;;;;;;5095569;28;20254;-73
2023/11/11 00:30:18;;;;;;;3.20;2.00;;;4.60;73.80;;;;;;5095554;28;20214;-73
2023/11/11 00:32:50;;;;;;;3.00;1.65;;;4.60;74.10;;;;;;5095432;28;20639;-73
2023/11/11 00:35:19;;;;;;;3.85;1.77;;;4.60;74.10;;;;;;5095509;28;20182;-73
2023/11/11 00:37:46;;;;;;;5.68;1.80;;;4.60;74.10;;;;;;5095627;28;20632;-73
2023/11/11 00:40:15;;;;;;;3.53;1.73;;;4.70;74.20;;;;;;5095529;28;20247;-73
2023/11/11 00:42:42;;;;;;;4.13;2.20;;;4.70;74.10;;;;;;5095620;28;20343;-73
2023/11/11 00:45:10;;;;;;;5.05;1.92;;;4.80;74.20;;;;;;5095688;28;20228;-73
2023/11/11 00:47:37;;;;;;;3.78;1.73;;;4.90;74.00;;;;;;5095738;28;20281;-73
2023/11/11 00:50:06;;;;;;;2.92;1.98;;;4.90;73.30;;;;;;5095623;28;20254;-73
2023/11/11 00:52:36;;;;;;;2.95;1.42;;;5.00;72.80;;;;;;5095351;28;20201;-74
2023/11/11 00:55:04;;;;;;;7.57;1.45;;;5.00;72.40;;;;;;5095648;28;20201;-73
2023/11/11 00:57:31;;;;;;;3.17;1.92;;;5.10;71.50;;;;;;5095126;28;20214;-73
2023/11/11 01:00:05;;;;;;;4.35;2.17;;;5.10;71.40;;;;;;5095450;28;20553;-73
2023/11/11 01:02:32;;;;;;;4.80;1.70;;;5.20;70.80;;;;;;5095245;28;20178;-73
2023/11/11 01:04:59;;;;;;;6.38;1.33;;;5.20;70.90;;;;;;5094883;28;20193;-73
2023/11/11 01:07:26;;;;;;;2.88;1.20;;;5.20;71.90;;;;;;5095310;28;20197;-73
2023/11/11 01:09:54;;;;;;;3.00;1.33;;;5.40;69.60;;;;;;5095128;28;20190;-74
2023/11/11 01:12:22;;;;;;;2.92;1.05;;;5.50;69.00;;;;;;5095062;28;20551;-73
2023/11/11 01:14:50;;;;;;;3.05;1.00;;;5.60;69.90;;;;;;5095105;28;20551;-73
2023/11/11 01:17:20;;;;;;;3.40;0.90;;;5.60;69.80;;;;;;5094431;28;20205;-73
2023/11/11 01:19:47;;;;;;;3.20;1.30;;;5.60;70.40;;;;;;5094325;28;20185;-73
2023/11/11 01:22:16;;;;;;;2.55;1.33;;;5.60;71.20;;;;;;5094123;28;20173;-74
2023/11/11 01:24:43;;;;;;;2.50;0.98;;;5.60;70.90;;;;;;5094469;28;20185;-73
2023/11/11 01:27:11;;;;;;;2.53;1.23;;;5.60;71.10;;;;;;5094434;28;20200;-73
2023/11/11 01:29:42;;;;;;;2.97;1.20;;;5.60;71.60;;;;;;5094395;28;20640;-73
2023/11/11 01:32:09;;;;;;;2.83;1.20;;;5.70;72.20;;;;;;5094706;28;20348;-73
2023/11/11 01:34:36;;;;;;;3.60;1.27;;;5.70;72.20;;;;;;5094542;28;20276;-73
2023/11/11 01:37:05;;;;;;;3.47;1.40;;;5.70;72.50;;;;;;5094358;28;20663;-73
2023/11/11 01:39:32;;;;;;;3.40;1.35;;;5.80;73.10;;;;;;5094465;28;20288;-73
2023/11/11 01:41:59;;;;;;;2.72;1.48;;;5.80;73.70;;;;;;5094159;28;20602;-73
2023/11/11 01:44:28;;;;;;;2.50;1.02;;;5.90;74.00;;;;;;5094420;28;20338;-73
2023/11/11 01:46:55;;;;;;;1.83;0.80;;;5.90;73.50;;;;;;5094524;28;20197;-73
2023/11/11 01:49:22;;;;;;;2.38;0.95;;;5.90;73.10;;;;;;5094342;28;20597;-73
2023/11/11 01:51:51;;;;;;;3.90;1.08;;;5.90;73.10;;;;;;5094231;28;20221;-73
2023/11/11 01:54:21;;;;;;;2.42;1.10;;;5.90;73.30;;;;;;5094316;28;20192;-74
2023/11/11 01:56:48;;;;;;;3.65;1.38;;;5.90;73.70;;;;;;5094025;28;20235;-74
2023/11/11 01:59:17;;;;;;;1.85;0.85;;;6.00;74.70;;;;;;5093856;28;20225;-73
2023/11/11 02:01:47;;;;;;;10.07;1.20;;;6.00;74.70;;;;;;5093755;28;20193;-73
2023/11/11 02:04:14;;;;;;;2.25;0.93;;;6.10;73.50;;;;;;5094245;28;20194;-73
2023/11/11 02:06:42;;;;;;;2.25;1.10;;;6.20;73.70;;;;;;5094022;28;20193;-73
2023/11/11 02:09:10;;;;;;;2.65;0.95;;;6.20;73.20;;;;;;5093672;28;20281;-73
2023/11/11 02:11:39;;;;;;;2.20;0.80;;;6.30;73.80;;;;;;5093584;28;20189;-73
2023/11/11 02:14:12;;;;;;;3.42;1.20;;;6.20;73.60;;;;;;5093851;28;20197;-73
2023/11/11 02:16:39;;;;;;;3.00;1.50;;;6.20;74.40;;;;;;5093892;28;20598;-73
2023/11/11 02:19:10;;;;;;;2.72;1.25;;;6.20;74.90;;;;;;5093910;28;20193;-73
2023/11/11 02:21:39;;;;;;;2.15;0.80;;;6.20;74.90;;;;;;5093519;28;20218;-73
2023/11/11 02:24:10;;;;;;;1.88;0.70;;;6.20;75.10;;;;;;5093697;28;20239;-74
2023/11/11 02:26:37;;;;;;;1.90;0.70;;;6.30;75.80;;;;;;5093510;28;20209;-74
2023/11/11 02:29:06;;;;;;;2.30;0.90;;;6.30;76.00;;;;;;5093316;28;20197;-74
2023/11/11 02:31:33;;;;;;;2.20;0.60;;;6.20;76.90;;;;;;5093555;28;20258;-74
2023/11/11 02:34:02;;;;;;;2.33;0.77;;;6.20;77.20;;;;;;5092689;28;20194;-73
2023/11/11 02:36:30;;;;;;;1.80;0.60;;;6.20;77.70;;;;;;5093927;28;20200;-73
2023/11/11 02:38:56;;;;;;;2.65;0.90;;;6.20;77.70;;;;;;5093354;28;20691;-73
2023/11/11 02:41:25;;;;;;;4.93;0.75;;;6.10;77.90;;;;;;5093457;28;20239;-73
2023/11/11 02:43:54;;;;;;;1.70;0.60;;;6.10;78.10;;;;;;5093202;28;20656;-73
2023/11/11 02:46:21;;;;;;;3.35;0.88;;;6.20;78.60;;;;;;5093202;28;20192;-74
2023/11/11 02:48:48;;;;;;;1.83;0.60;;;6.20;79.20;;;;;;5093332;28;20193;-73
2023/11/11 02:51:15;;;;;;;2.10;0.80;;;6.20;80.10;;;;;;5093494;28;20585;-73
2023/11/11 02:53:42;;;;;;;2.30;0.70;;;6.20;81.00;;;;;;5093143;28;20236;-73
2023/11/11 02:56:10;;;;;;;3.72;0.93;;;6.30;81.40;;;;;;5093299;28;20561;-73
2023/11/11 02:58:38;;;;;;;2.10;0.63;;;6.30;81.50;;;;;;5092878;28;20209;-73
2023/11/11 03:01:06;;;;;;;1.70;0.70;;;6.40;81.60;;;;;;5093035;28;20230;-73
2023/11/11 03:03:33;;;;;;;1.90;0.70;;;6.40;81.80;;;;;;5092938;28;20655;-73
2023/11/11 03:06:05;;;;;;;1.80;0.60;;;6.50;82.00;;;;;;5092947;28;20186;-73
2023/11/11 03:08:36;;;;;;;3.20;0.70;;;6.50;81.90;;;;;;5093282;28;20263;-73
2023/11/11 03:11:04;;;;;;;2.00;0.70;;;6.60;82.40;;;;;;5092958;28;20178;-74
2023/11/11 03:13:32;;;;;;;2.08;0.80;;;6.60;82.40;;;;;;5093073;28;20205;-73
2023/11/11 03:16:00;;;;;;;1.70;0.70;;;6.70;81.90;;;;;;5093264;28;20273;-73
2023/11/11 03:18:27;;;;;;;1.70;0.60;;;6.70;82.40;;;;;;5092983;28;20312;-73
2023/11/11 03:20:57;;;;;;;2.08;0.77;;;6.70;82.50;;;;;;5092627;28;20267;-73
2023/11/11 03:23:24;;;;;;;1.70;0.60;;;6.80;83.00;;;;;;5093137;28;20556;-73
2023/11/11 03:25:51;;;;;;;1.90;0.60;;;6.80;82.70;;;;;;5093079;28;20220;-74
2023/11/11 03:28:18;;;;;;;1.80;0.70;;;6.90;82.80;;;;;;5092533;28;20713;-74
2023/11/11 03:30:48;;;;;;;1.80;0.70;;;6.90;83.00;;;;;;5092646;28;20278;-74
2023/11/11 03:33:16;;;;;;;1.73;0.70;;;7.00;82.80;;;;;;5092599;28;20225;-74
2023/11/11 03:35:44;;;;;;;1.80;0.60;;;7.00;83.00;;;;;;5093089;28;20198;-73
2023/11/11 03:38:11;;;;;;;1.73;0.63;;;7.00;83.00;;;;;;5093186;28;20229;-73
2023/11/11 03:40:38;;;;;;;1.90;0.70;;;7.10;83.10;;;;;;5093007;28;20189;-73
2023/11/11 03:43:08;;;;;;;2.22;0.60;;;7.10;83.60;;;;;;5092973;28;20193;-74
2023/11/11 03:45:35;;;;;;;1.80;0.70;;;7.20;83.70;;;;;;5094129;28;20190;-74
2023/11/11 03:48:02;;;;;;;2.00;0.60;;;7.20;83.50;;;;;;5096767;28;20546;-74
2023/11/11 03:50:31;;;;;;;1.80;0.70;;;7.30;82.90;;;;;;5096610;28;20214;-74
2023/11/11 03:52:58;;;;;;;1.85;0.60;;;7.30;81.90;;;;;;5096925;28;20185;-74
2023/11/11 03:55:25;;;;;;;1.77;0.65;;;7.30;81.70;;;;;;5096311;28;20530;-74
2023/11/11 03:57:52;;;;;;;2.00;0.68;;;7.30;81.80;;;;;;5096640;28;20245;-73
2023/11/11 04:00:20;;;;;;;2.42;0.80;;;7.30;81.00;;;;;;5096353;28;20225;-74
2023/11/11 04:02:47;;;;;;;2.30;0.77;;;7.30;81.10;;;;;;5096297;28;20189;-74
2023/11/11 04:05:15;;;;;;;2.47;0.70;;;7.30;81.20;;;;;;5096322;28;20190;-74
2023/11/11 04:07:46;;;;;;;1.90;0.65;;;7.20;81.00;;;;;;5096091;28;20193;-73
2023/11/11 04:10:13;;;;;;;1.83;0.60;;;7.20;81.40;;;;;;5095981;28;20186;-74
2023/11/11 04:12:41;;;;;;;1.70;0.60;;;7.20;80.10;;;;;;5095898;28;20189;-74
2023/11/11 04:15:08;;;;;;;1.70;0.60;;;7.10;80.30;;;;;;5096372;28;20185;-74
2023/11/11 04:17:35;;;;;;;1.73;0.57;;;7.10;80.20;;;;;;5096006;28;20246;-74
2023/11/11 04:20:03;;;;;;;1.70;0.60;;;7.10;80.50;;;;;;5096138;28;20605;-74
2023/11/11 04:22:30;;;;;;;1.83;0.60;;;7.10;80.60;;;;;;5096105;28;20189;-74
2023/11/11 04:24:58;;;;;;;3.40;0.80;;;7.10;80.40;;;;;;5096022;28;20251;-74
2023/11/11 04:27:29;;;;;;;1.83;0.73;;;7.10;79.40;;;;;;5095865;28;20200;-74
2023/11/11 04:29:56;;;;;;;2.13;0.75;;;7.10;78.80;;;;;;5095982;28;20189;-74
2023/11/11 04:32:23;;;;;;;2.20;0.80;;;7.00;79.00;;;;;;5095455;28;20247;-74
2023/11/11 04:34:52;;;;;;;1.88;0.80;;;7.00;79.60;;;;;;5095444;28;20660;-74
2023/11/11 04:37:19;;;;;;;1.90;0.73;;;6.90;80.10;;;;;;5095754;28;20258;-74
2023/11/11 04:39:48;;;;;;;2.20;1.02;;;6.90;80.40;;;;;;5095190;28;20232;-74
2023/11/11 04:42:17;;;;;;;1.90;0.80;;;6.90;80.80;;;;;;5095389;28;20190;-74
2023/11/11 04:44:44;;;;;;;1.92;0.80;;;6.90;81.20;;;;;;5095186;28;20193;-74
2023/11/11 04:47:12;;;;;;;2.20;0.80;;;6.90;81.30;;;;;;5095485;28;20600;-74
2023/11/11 04:49:39;;;;;;;2.00;0.77;;;6.90;81.80;;;;;;5095989;28;20205;-74
2023/11/11 04:52:06;;;;;;;2.03;0.80;;;6.90;82.10;;;;;;5095126;28;20232;-74
2023/11/11 04:54:34;;;;;;;1.90;0.88;;;6.90;82.60;;;;;;5095484;28;20217;-74
2023/11/11 04:57:00;;;;;;;2.60;1.10;;;6.80;82.60;;;;;;5094247;28;20194;-74
2023/11/11 04:59:30;;;;;;;2.60;1.10;;;6.90;82.40;;;;;;5095340;28;20209;-74
2023/11/11 05:01:57;;;;;;;4.28;1.00;;;6.80;82.50;;;;;;5095071;28;20194;-74
2023/11/11 05:04:24;;;;;;;2.70;0.90;;;6.80;82.00;;;;;;5094882;28;20189;-74
2023/11/11 05:06:51;;;;;;;3.20;1.13;;;6.80;81.30;;;;;;5095074;28;20229;-73
2023/11/11 05:09:19;;;;;;;1.92;0.90;;;6.80;80.90;;;;;;5095142;28;20255;-73
2023/11/11 05:11:47;;;;;;;1.90;0.88;;;6.80;80.90;;;;;;5095119;28;20588;-74
2023/11/11 05:14:17;;;;;;;3.75;1.20;;;6.80;81.30;;;;;;5094815;28;20289;-74
2023/11/11 05:16:50;;;;;;;2.55;0.85;;;6.80;80.10;;;;;;5094675;28;20269;-74
2023/11/11 05:19:18;;;;;;;2.20;1.00;;;6.90;78.20;;;;;;5094800;28;20209;-74
2023/11/11 05:21:45;;;;;;;2.30;0.90;;;6.80;78.10;;;;;;5094642;28;20260;-74
2023/11/11 05:24:13;;;;;;;1.90;0.90;;;6.80;78.00;;;;;;5095012;28;20281;-74
2023/11/11 05:26:40;;;;;;;2.70;1.05;;;6.80;77.10;;;;;;5094789;28;20586;-74
2023/11/11 05:29:08;;;;;;;4.65;1.90;;;6.80;76.70;;;;;;5094407;28;20232;-74
2023/11/11 05:31:41;;;;;;;2.30;1.00;;;6.80;76.00;;;;;;5094642;28;20570;-75
2023/11/11 05:34:09;;;;;;;2.25;0.90;;;6.80;76.20;;;;;;5094673;28;20306;-75
2023/11/11 05:36:36;;;;;;;2.47;0.88;;;6.90;75.70;;;;;;5094578;28;20193;-74
2023/11/11 05:39:04;;;;;;;3.05;1.00;;;6.80;75.60;;;;;;5094437;28;20209;-75
2023/11/11 05:41:31;;;;;;;3.33;1.35;;;6.80;75.70;;;;;;5094572;28;20193;-75
2023/11/11 05:43:58;;;;;;;2.88;1.10;;;6.80;76.00;;;;;;5094142;28;20194;-73
2023/11/11 05:46:26;;;;;;;1.98;0.80;;;6.80;75.80;;;;;;5094319;28;20277;-74
2023/11/11 05:48:52;;;;;;;2.13;0.93;;;6.70;75.70;;;;;;5094310;28;20550;-74
2023/11/11 05:51:22;;;;;;;2.80;1.10;;;6.70;76.00;;;;;;5094583;28;20231;-74
2023/11/11 05:53:49;;;;;;;2.08;0.90;;;6.70;75.20;;;;;;5094397;28;20538;-73
2023/11/11 05:56:17;;;;;;;1.90;0.90;;;6.70;74.70;;;;;;5093873;28;20636;-73
2023/11/11 05:58:44;;;;;;;3.70;1.20;;;6.80;75.00;;;;;;5093969;28;20215;-74
2023/11/11 06:01:11;;;;;;;2.97;0.90;;;6.70;74.50;;;;;;5094213;28;20201;-74
2023/11/11 06:03:38;;;;;;;2.20;0.80;;;6.70;75.00;;;;;;5093664;28;20789;-74
2023/11/11 06:06:06;;;;;;;2.85;0.85;;;6.70;75.40;;;;;;5094073;28;20281;-73
2023/11/11 06:08:35;;;;;;;2.25;1.08;;;6.70;75.30;;;;;;5093882;28;20599;-74
2023/11/11 06:11:05;;;;;;;2.00;0.88;;;6.60;75.40;;;;;;5094174;28;20542;-74
2023/11/11 06:13:32;;;;;;;3.30;2.20;;;6.60;75.30;;;;;;5094256;28;20514;-74
2023/11/11 06:15:59;;;;;;;2.28;1.02;;;6.60;74.50;;;;;;5093878;28;20197;-74
2023/11/11 06:18:26;;;;;;;2.90;1.30;;;6.60;74.40;;;;;;5093281;28;20209;-74
2023/11/11 06:20:53;;;;;;;2.40;1.17;;;6.60;74.50;;;;;;5093144;28;20222;-74
2023/11/11 06:23:23;;;;;;;2.33;0.90;;;6.60;74.10;;;;;;5093736;28;20246;-74
2023/11/11 06:25:51;;;;;;;2.00;0.90;;;6.60;74.10;;;;;;5093404;28;20616;-74
2023/11/11 06:28:18;;;;;;;2.10;0.90;;;6.60;74.20;;;;;;5093347;28;20709;-73
2023/11/11 06:30:45;;;;;;;3.40;0.93;;;6.60;73.90;;;;;;5093507;28;20221;-74
2023/11/11 06:33:12;;;;;;;2.00;0.90;;;6.70;73.90;;;;;;5093031;28;20639;-73
2023/11/11 06:35:42;;;;;;;3.00;1.00;;;6.60;74.00;;;;;;5093213;28;20189;-73
2023/11/11 06:38:10;;;;;;;2.33;0.90;;;6.70;74.10;;;;;;5093300;28;20255;-74
2023/11/11 06:40:37;;;;;;;2.10;0.90;;;6.70;73.90;;;;;;5093478;28;20193;-74
2023/11/11 06:43:07;;;;;;;2.40;1.13;;;6.70;73.40;;;;;;5093465;28;20189;-74
2023/11/11 06:45:36;;;;;;;4.25;1.45;;;6.70;73.60;;;;;;5093122;28;20739;-74
2023/11/11 06:48:05;;;;;;;3.35;0.98;;;6.80;73.60;;;;;;5093254;28;20284;-74
2023/11/11 06:50:34;;;;;;;3.15;1.30;;;6.90;73.40;;;;;;5092820;28;20276;-74
2023/11/11 06:53:01;;;;;;;3.45;1.20;;;7.40;73.00;;;;;;5092813;28;20185;-74
2023/11/11 06:55:30;;;;;;;2.83;1.08;;;7.90;71.50;;;;;;5093173;28;20278;-74
2023/11/11 06:57:57;;;;;;;3.38;1.80;;;8.20;69.40;;;;;;5092847;28;20190;-74
2023/11/11 07:00:25;;;;;;;2.00;1.00;;;8.10;68.10;;;;;;5092848;28;20763;-74
2023/11/11 07:02:54;;;;;;;1.85;0.80;;;8.00;68.00;;;;;;5093017;28;20193;-74
2023/11/11 07:05:21;;;;;;;3.97;1.27;;;7.90;67.80;;;;;;5092969;28;20190;-74
2023/11/11 07:07:48;;;;;;;2.20;1.10;;;8.00;68.90;;;;;;5093056;28;20262;-74
2023/11/11 07:10:18;;;;;;;2.30;0.90;;;8.20;68.60;;;;;;5092933;28;20254;-74
2023/11/11 07:12:45;;;;;;;2.03;1.00;;;8.50;67.60;;;;;;5092695;28;20652;-74
2023/11/11 07:15:13;;;;;;;7.38;1.00;;;9.00;65.40;;;;;;5092624;28;20655;-74
2023/11/11 07:17:42;;;;;;;2.20;1.10;;;9.40;63.40;;;;;;5092429;28;20200;-74
2023/11/11 07:20:12;;;;;;;3.40;1.00;;;9.80;62.60;;;;;;5093118;28;20316;-74
2023/11/11 07:22:39;;;;;;;2.30;1.25;;;9.80;60.80;;;;;;5096967;28;20185;-74
2023/11/11 07:25:06;;;;;;;3.72;1.58;;;9.90;60.10;;;;;;5096886;28;20221;-74
2023/11/11 07:27:33;;;;;;;2.10;1.13;;;10.10;58.40;;;;;;5096746;28;20267;-75
2023/11/11 07:30:05;;;;;;;2.58;1.15;;;10.30;58.20;;;;;;5096759;28;20198;-75
2023/11/11 07:32:34;;;;;;;3.17;1.20;;;10.60;57.70;;;;;;5096373;28;20185;-74
2023/11/11 07:35:04;;;;;;;2.35;1.23;;;11.00;56.50;;;;;;5096652;28;20189;-74
2023/11/11 07:37:31;;;;;;;2.45;0.90;;;11.30;55.70;;;;;;5096567;28;20250;-75
2023/11/11 07:39:59;;;;;;;3.97;1.25;;;11.60;55.00;;;;;;5096239;28;20213;-74
2023/11/11 07:42:26;;;;;;;3.47;1.20;;;12.00;53.70;;;;;;5096273;28;20667;-75
2023/11/11 07:44:54;;;;;;;2.50;0.80;;;12.30;52.60;;;;;;5096619;28;20193;-75
2023/11/11 07:47:21;;;;;;;2.60;1.30;;;12.70;52.60;;;;;;5096071;28;20239;-75
2023/11/11 07:49:48;;;;;;;2.50;1.47;;;13.10;51.50;;;;;;5096169;28;20220;-75
2023/11/11 07:52:17;;;;;;;2.10;1.00;;;13.30;49.30;;;;;;5096426;28;20435;-75
2023/11/11 07:54:44;;;;;;;2.30;1.07;;;13.60;47.90;;;;;;5096431;28;20470;-75
2023/11/11 07:57:13;;;;;;;3.37;1.37;;;13.80;47.60;;;;;;5096326;28;20592;-75
2023/11/11 07:59:43;;;;;;;2.20;0.93;;;14.00;46.70;;;;;;5095900;28;20471;-75
2023/11/11 08:02:31;;;;;;;3.70;1.20;;;14.20;46.40;;;;;;5096159;28;20515;-75
2023/11/11 08:04:58;;;;;;;4.13;1.20;;;14.50;44.40;;;;;;5095845;28;20423;-74
2023/11/11 08:07:29;;;;;;;3.07;1.10;;;14.80;44.10;;;;;;5096340;28;20436;-75
2023/11/11 08:09:56;;;;;;;2.40;1.10;;;15.00;44.30;;;;;;5095717;28;20914;-74
2023/11/11 08:12:24;;;;;;;2.93;1.10;;;15.20;42.90;;;;;;5095692;28;21008;-75
2023/11/11 08:14:53;;;;;;;2.20;1.20;;;15.30;42.50;;;;;;5095649;28;20436;-74
2023/11/11 08:17:20;;;;;;;2.70;1.03;;;15.50;42.00;;;;;;5095747;28;20767;-75
2023/11/11 08:19:47;;;;;;;2.53;1.13;;;15.70;42.40;;;;;;5095770;28;20455;-74
2023/11/11 08:22:14;;;;;;;4.20;2.43;;;15.80;41.30;;;;;;5095458;28;20873;-75
2023/11/11 08:24:45;;;;;;;4.00;1.10;;;16.00;40.40;;;;;;5095473;28;20432;-75
2023/11/11 08:27:18;;;;;;;2.57;1.23;;;16.20;39.90;;;;;;5095762;28;20443;-75
2023/11/11 08:29:49;;;;;;;3.17;1.30;;;16.50;40.60;;;;;;5095711;28;20459;-75
2023/11/11 08:32:24;;;;;;;2.77;1.13;;;16.80;38.80;;;;;;5094018;28;20874;-75
2023/11/11 08:34:52;;;;;;;2.50;1.00;;;17.10;38.20;;;;;;5095408;28;20419;-75
2023/11/11 08:37:19;;;;;;;2.50;1.20;;;17.30;37.20;;;;;;5095759;28;20847;-75
2023/11/11 08:39:49;;;;;;;2.83;1.20;;;17.40;35.80;;;;;;5095403;28;20467;-75
2023/11/11 08:42:18;;;;;;;3.27;1.30;;;17.50;35.40;;;;;;5095303;28;20436;-75
2023/11/11 08:44:48;;;;;;;3.23;1.10;;;17.50;35.30;;;;;;5095182;28;20424;-75
2023/11/11 08:47:15;;;;;;;2.40;0.80;;;17.50;34.40;;;;;;5095254;28;20993;-76
2023/11/11 08:49:45;;;;;;;3.87;1.00;;;17.80;35.90;;;;;;5095395;28;20439;-75
2023/11/11 08:52:14;;;;;;;2.40;0.90;;;17.70;34.10;;;;;;5095187;28;20436;-75
2023/11/11 08:54:41;;;;;;;3.00;1.10;;;17.20;34.10;;;;;;5095320;28;20816;-74
2023/11/11 08:57:11;;;;;;;2.73;1.17;;;16.80;34.70;;;;;;5095009;28;20519;-74
2023/11/11 08:59:38;;;;;;;4.30;1.40;;;16.30;34.50;;;;;;5094991;28;20532;-74
2023/11/11 09:02:05;;;;;;;2.60;1.40;;;16.10;35.70;;;;;;5094648;28;20493;-74
2023/11/11 09:04:34;;;;;;;2.60;1.03;;;15.70;36.00;;;;;;5094693;28;20496;-74
2023/11/11 09:07:02;;;;;;;2.40;1.33;;;15.40;36.30;;;;;;5095365;28;20527;-74
2023/11/11 09:09:29;;;;;;;3.20;1.10;;;15.00;36.60;;;;;;5095062;28;20438;-74
2023/11/11 09:11:59;;;;;;;3.40;1.10;;;14.60;37.40;;;;;;5094520;28;20944;-74
2023/11/11 09:14:33;;;;;;;2.40;1.13;;;14.30;38.20;;;;;;5094913;28;20432;-74
2023/11/11 09:17:00;;;;;;;2.70;0.97;;;13.90;38.50;;;;;;5094705;28;20506;-74
2023/11/11 09:19:27;;;;;;;4.13;1.57;;;13.70;39.10;;;;;;5094249;28;20467;-74
2023/11/11 09:21:54;;;;;;;2.27;1.00;;;13.60;39.70;;;;;;5094862;28;20486;-75
2023/11/11 09:24:21;;;;;;;4.47;1.03;;;13.60;39.90;;;;;;5094341;28;20489;-74
2023/11/11 09:26:50;;;;;;;2.93;1.27;;;13.60;40.20;;;;;;5094062;28;20435;-74
2023/11/11 09:29:18;;;;;;;3.17;1.20;;;13.50;40.30;;;;;;5094167;28;21003;-74
2023/11/11 09:31:47;;;;;;;3.37;1.30;;;13.30;40.20;;;;;;5094355;28;20469;-74
2023/11/11 09:34:17;;;;;;;3.00;1.60;;;13.10;40.30;;;;;;5094501;28;20439;-74
2023/11/11 09:36:44;;;;;;;2.87;1.30;;;13.00;41.30;;;;;;5094357;28;20504;-74
2023/11/11 09:39:13;;;;;;;2.23;1.00;;;13.00;41.30;;;;;;5093977;28;20527;-74
2023/11/11 09:41:41;;;;;;;3.03;1.57;;;13.10;42.10;;;;;;5094389;28;20432;-74
2023/11/11 09:44:08;;;;;;;2.70;1.23;;;13.20;41.50;;;;;;5093694;28;20492;-74
2023/11/11 09:46:42;;;;;;;3.40;2.07;;;13.00;41.80;;;;;;5094309;28;20511;-74
2023/11/11 09:49:11;;;;;;;2.30;0.93;;;12.80;42.60;;;;;;5094229;28;20541;-74
2023/11/11 09:51:42;;;;;;;5.70;1.70;;;13.20;44.70;;;;;;5094322;28;20789;-74
2023/11/11 09:54:10;;;;;;;2.90;1.27;;;14.60;43.80;;;;;;5094312;28;20415;-75
2023/11/11 09:56:42;;;;;;;2.00;1.00;;;15.70;41.10;;;;;;5094012;28;20439;-75
2023/11/11 09:59:10;;;;;;;3.40;1.17;;;16.50;39.00;;;;;;5093931;28;20843;-75
2023/11/11 10:01:41;;;;;;;2.27;1.13;;;16.80;39.80;;;;;;5093503;28;20923;-75
2023/11/11 10:04:09;;;;;;;2.33;1.03;;;16.90;37.10;;;;;;5093499;28;20485;-75
2023/11/11 10:06:38;;;;;;;2.00;0.90;;;16.50;35.70;;;;;;5093964;28;20436;-76
2023/11/11 10:09:08;;;;;;;5.30;1.60;;;16.60;35.90;;;;;;5093782;28;20500;-75
2023/11/11 10:11:38;;;;;;;4.20;1.30;;;16.80;36.00;;;;;;5093776;28;20747;-75
2023/11/11 10:14:07;;;;;;;3.70;1.10;;;17.10;34.70;;;;;;5093976;28;20451;-75
2023/11/11 10:16:37;;;;;;;2.90;1.07;;;18.20;34.40;;;;;;5093627;28;20475;-75
2023/11/11 10:19:12;;;;;;;4.37;1.40;;;18.50;31.60;;;;;;5093626;28;20427;-75
2023/11/11 10:21:41;;;;;;;4.13;1.20;;;18.60;30.50;;;;;;5093456;28;20798;-75
2023/11/11 10:24:10;;;;;;;1.93;0.73;;;18.30;31.40;;;;;;5093676;28;20489;-74
2023/11/11 10:26:39;;;;;;;3.47;1.10;;;17.80;32.50;;;;;;5093605;28;20549;-74
2023/11/11 10:29:08;;;;;;;3.27;1.30;;;17.00;34.30;;;;;;5093464;28;20482;-75
2023/11/11 10:31:37;;;;;;;2.40;1.00;;;16.40;34.90;;;;;;5093461;28;20443;-75
2023/11/11 10:34:04;;;;;;;3.43;1.00;;;16.00;35.00;;;;;;5092957;28;20926;-75
2023/11/11 10:36:44;;;;;;;1.90;0.80;;;16.90;35.20;;;;;;5093154;28;20477;-75
2023/11/11 10:39:13;;;;;;;3.37;1.00;;;18.70;33.40;;;;;;5093034;28;20949;-75
2023/11/11 10:41:40;;;;;;;2.00;1.00;;;21.00;32.00;;;;;;5093209;28;20829;-75
2023/11/11 10:44:08;;;;;;;3.40;1.00;;;22.20;31.10;;;;;;5093335;28;20459;-76
2023/11/11 10:46:36;;;;;;;2.40;0.90;;;24.10;28.80;;;;;;5092873;28;20496;-76
2023/11/11 10:49:08;;;;;;;2.40;0.80;;;24.90;26.30;;;;;;5092835;28;20946;-76
2023/11/11 10:51:35;;;;;;;2.30;0.90;;;25.50;25.30;;;;;;5093258;28;20510;-76
2023/11/11 10:54:05;;;;;;;2.63;1.10;;;25.20;24.90;;;;;;5092829;28;20435;-76
2023/11/11 10:56:34;;;;;;;2.10;0.90;;;26.10;23.50;;;;;;5092077;28;20493;-77
2023/11/11 10:59:04;;;;;;;4.37;1.10;;;26.60;21.70;;;;;;5093014;28;20428;-76
2023/11/11 11:01:36;;;;;;;3.73;1.07;;;25.10;21.60;;;;;;5092955;28;20507;-76
2023/11/11 11:04:04;;;;;;;2.27;0.90;;;23.20;22.50;;;;;;5092683;28;20431;-76
2023/11/11 11:06:38;;;;;;;2.43;0.87;;;21.40;24.00;;;;;;5093030;28;20435;-76
2023/11/11 11:09:21;;;;;;;2.20;0.90;;;19.90;25.60;;;;;;5093132;28;20419;-75
2023/11/11 11:11:58;;;;;;;3.53;0.90;;;18.50;28.60;;;;;;5092932;28;20424;-75
2023/11/11 11:14:44;;;;;;;2.77;1.10;;;17.20;31.50;;;;;;5093037;28;20815;-75
2023/11/11 11:17:12;;;;;;;2.33;0.97;;;16.30;34.50;;;;;;5092553;28;20448;-75
2023/11/11 11:19:52;;;;;;;3.30;1.10;;;15.80;35.90;;;;;;5092595;28;20451;-75
2023/11/11 11:22:20;;;;;;;2.77;0.97;;;15.80;35.80;;;;;;5093007;28;20498;-75
2023/11/11 11:24:52;;;;;;;2.80;1.27;;;16.20;36.10;;;;;;5092828;28;20831;-76
2023/11/11 11:27:23;;;;;;;2.63;1.20;;;17.20;35.10;;;;;;5092842;28;20459;-75
2023/11/11 11:29:51;;;;;;;2.40;1.00;;;17.80;34.30;;;;;;5093047;28;20412;-75
2023/11/11 11:32:24;;;;;;;2.80;0.80;;;18.70;34.10;;;;;;5093029;28;20435;-76
2023/11/11 11:35:25;;;;;;;2.63;0.70;;;21.30;31.60;;;;;;5092806;28;20419;-76
2023/11/11 11:37:52;;;;;;;2.00;0.60;;;23.90;28.30;;;;;;5092772;28;20436;-76
2023/11/11 11:40:20;;;;;;;1.97;0.70;;;24.70;25.90;;;;;;5092733;28;20524;-76
2023/11/11 11:42:50;;;;;;;2.43;0.77;;;24.50;24.90;;;;;;5092785;28;20594;-76
2023/11/11 11:45:28;;;;;;;3.10;0.93;;;24.30;25.60;;;;;;5092447;28;20427;-75
2023/11/11 11:47:55;;;;;;;2.00;0.70;;;23.70;25.10;;;;;;5092700;28;20776;-75
2023/11/11 11:50:23;;;;;;;2.07;0.60;;;23.70;25.10;;;;;;5092787;28;20501;-76
2023/11/11 11:52:53;;;;;;;3.63;0.80;;;24.70;25.10;;;;;;5092220;28;20428;-76
2023/11/11 11:55:22;;;;;;;3.33;0.80;;;24.50;24.20;;;;;;5092255;28;20893;-76
2023/11/11 11:57:56;;;;;;;2.10;0.70;;;23.40;24.20;;;;;;5092779;28;20435;-75
2023/11/11 12:00:24;;;;;;;2.20;0.80;;;23.90;25.40;;;;;;5092129;28;21105;-75
2023/11/11 12:02:53;;;;;;;2.20;0.80;;;25.30;24.30;;;;;;5092843;28;20826;-75
2023/11/11 12:05:21;;;;;;;2.10;0.80;;;25.10;23.20;;;;;;5092440;28;20439;-75
2023/11/11 12:07:52;;;;;;;2.33;1.03;;;24.20;23.20;;;;;;5095182;28;20431;-75
2023/11/11 12:10:19;;;;;;;2.50;0.80;;;22.90;24.40;;;;;;5095810;28;20435;-75
2023/11/11 12:12:48;;;;;;;2.63;0.83;;;23.20;24.20;;;;;;5096064;28;20431;-75
2023/11/11 12:15:16;;;;;;;1.80;0.60;;;23.10;24.30;;;;;;5095646;28;20542;-75
2023/11/11 12:17:45;;;;;;;2.27;0.80;;;23.30;24.40;;;;;;5095499;28;20497;-75
2023/11/11 12:20:15;;;;;;;3.27;0.80;;;22.70;23.80;;;;;;5095860;28;20491;-75
2023/11/11 12:22:43;;;;;;;2.80;1.00;;;21.40;24.80;;;;;;5096071;28;20443;-75
2023/11/11 12:25:11;;;;;;;1.97;0.60;;;19.90;26.10;;;;;;5095850;28;20529;-75
2023/11/11 12:27:38;;;;;;;3.03;0.90;;;18.60;27.00;;;;;;5095650;28;20618;-75
2023/11/11 12:30:23;;;;;;;5.50;1.20;;;19.20;28.60;;;;;;5095796;28;20435;-75
2023/11/11 12:33:03;;;;;;;3.23;1.23;;;20.70;26.70;;;;;;5094486;28;20443;-75
2023/11/11 12:35:36;;;;;;;2.70;1.30;;;21.90;25.90;;;;;;5095722;28;20511;-75
2023/11/11 12:38:20;;;;;;;6.30;1.30;;;23.10;25.10;;;;;;5095842;28;20564;-76
2023/11/11 12:40:47;;;;;;;4.43;1.43;;;24.20;24.20;;;;;;5094854;28;20591;-75
2023/11/11 12:43:15;;;;;;;2.83;0.93;;;24.80;23.40;;;;;;5095538;28;20454;-76
2023/11/11 12:45:48;;;;;;;9.33;1.30;;;25.20;23.20;;;;;;5095484;28;20435;-76
2023/11/11 12:48:16;;;;;;;2.07;0.90;;;25.30;21.80;;;;;;5095597;28;20415;-75
2023/11/11 12:50:44;;;;;;;9.53;1.57;;;25.30;22.30;;;;;;5095655;28;20481;-76
2023/11/11 12:53:13;;;;;;;5.53;1.20;;;25.30;21.70;;;;;;5095105;28;20474;-75
2023/11/11 12:55:41;;;;;;;6.83;1.10;;;25.10;21.60;;;;;;5095726;28;20518;-75
2023/11/11 12:58:22;;;;;;;6.70;1.10;;;24.90;21.80;;;;;;5094919;28;20934;-76
2023/11/11 13:00:55;;;;;;;3.03;1.20;;;24.70;22.20;;;;;;5094768;28;20503;-75